AirNav   Everest Fuels
 
 940 users online  

7FD7 Lakeland Regional Medical Center Heliport
Lakeland, Florida, USA

GOING TO LAKELAND?


FAA INFORMATION EFFECTIVE 05 DECEMBER 2019

Location

FAA Identifier: 7FD7
Lat/Long: 28-03-43.9500N 081-57-15.3200W
28-03.732500N 081-57.255333W
28.0622083,-81.9542556
(estimated)
Elevation: 243 ft. / 74 m (estimated)
Variation: 02W (1985)
From city: 1 mile N of LAKELAND, FL
Time zone: UTC -5 (UTC -4 during Daylight Saving Time)
Zip code: 33805

Heliport Operations

Heliport use: Private use, MEDICAL
Activation date: 03/1988
Control tower: no
ARTCC: MIAMI CENTER
FSS: SAINT PETERSBURG FLIGHT SERVICE STATION
Attendance: UNATNDD
Wind indicator: lighted
Segmented circle: no
Lights: SS-SR

Heliport Communications

WX AWOS-3PT at LAL (6 nm SW): 118.025 (863-834-2030)
WX ASOS at GIF (11 nm E): 133.675 (863-956-2097)
WX AWOS-3 at BOW (12 nm SE): 123.775 (863-533-9004)
WX AWOS-3 at PCM (12 nm W): 120.025 (813-764-8259)
WX AWOS-3PT at ZPH (15 nm NW): 118.975 (813-780-0031)

Nearby radio navigation aids

VOR radial/distance  VOR name  Freq  Var
LALr034/5.5LAKELAND VORTAC116.0001E
PIEr082/39.8ST PETERSBURG VORTAC116.4005W

Heliport Services

Runway Information

Helipad H1

Dimensions: 20 x 20 ft. / 6 x 6 m
Surface: concrete
ROOFTOP.
Runway edge lights: PERI
Latitude: 28-03.732500N
Longitude: 081-57.255333W
Elevation: 243.0 ft.
Traffic pattern: leftleft

Heliport Ownership and Management from official FAA records

Ownership: Privately-owned
Owner: LAKELAND REGIONAL MEDICAL CENTER
1324 LAKELAND HILLS BLVD
LAKELAND, FL 33805
Phone (863) 687-1313

Additional Remarks

17 FT BLDG 34 FT SOUTH OF HELIPAD.
FOR CD CTC TAMPA APCH AT 813-878-2528

Instrument Procedures

There are no published instrument procedures at 7FD7.

Some nearby airports with instrument procedures:

KLAL - Lakeland Linder International Airport (6 nm SW)
KGIF - Winter Haven Regional Airport (11 nm E)
KBOW - Bartow Executive Airport (12 nm SE)
KPCM - Plant City Airport (12 nm W)
KZPH - Zephyrhills Municipal Airport (15 nm NW)
 
Loc | Ops | Rwys | IFR | FBO | Links
Com | Nav | Svcs | Stats | Notes


 
Area around 7FD7 (Lakeland Regional Medical Center Heliport)
 
Road maps at: MapQuest Bing Google
 
Aerial photo
No photo
 
Sectional chart

 
Airport distance calculator
Flying to Lakeland Regional Medical Center Heliport? Find the distance to fly.

From to 7FD7

Sunrise and sunset
Times for 12-Dec-2019
 Local
(UTC-5)
 Zulu
(UTC)
Morning civil twilight06:4511:45
Sunrise07:1112:11
Sunset17:3222:32
Evening civil twilight17:5822:58

Current date and time
Zulu (UTC)  12-Dec-2019 23:42:39
Local (UTC-5)  12-Dec-2019 18:42:39
 
METAR
KLAL 
7nm SW 
122249Z 07018KT 10SM OVC015 22/19 A3017
KGIF 
11nm E 
122312Z AUTO 07010KT 10SM SCT009 OVC016 22/20 A3018 RMK AO2 RAE12 P0001 T02170200
KPCM 
12nm W 
122315Z AUTO 07008KT 7SM BKN012 OVC018 22/21 A3018 RMK AO2
KBOW 
13nm SE 
122315Z AUTO 06009KT 10SM OVC013 22/20 A3015 RMK AO2
KZPH 
15nm NW 
122315Z AUTO 06006KT 10SM SCT010 OVC017 21/20 A3018 RMK A02 T02080200
TAF
KLAL 
7nm SW 
121723Z 1218/1318 07012G17KT P6SM VCSH BKN015 OVC100 FM130000 08007KT P6SM BKN025 FM131500 16007KT P6SM OVC100
NOTAMs
Click for the latest NOTAMs
NOTAMs are issued by the DoD/FAA and will open in a separate window not controlled by AirNav.

 

 
 

Would you like to see your business listed on this page?

 If your business provides an interesting product or service to pilots, flight crews, aircraft, or users of the Lakeland Regional Medical Center Heliport, you should consider listing it here.  To start the listing process, click on the button below
 
Add a business
 

Other Pages about Lakeland Regional Medical Center Heliport

Update a link
 
Copyright © AirNav, LLC. All rights reserved. Privacy Policy  Contact